Time;durP1;ratioP1;P1;durP2;ratioP2;P2;SDS_P1;SDS_P2;PMS_P1;PMS_P2;Temp;Humidity;BMP_temperature;BMP_pressure;BME280_temperature;BME280_humidity;BME280_pressure;Samples;Min_cycle;Max_cycle;Signal;HPM_P1;HPM_P2
2022/09/16 00:01:24;;;;;;;5.25;2.13;;;24.40;99.90;;;;;;5043254;28;20037;-74
2022/09/16 00:03:54;;;;;;;8.73;2.20;;;24.40;99.90;;;;;;5040567;28;20070;-74
2022/09/16 00:06:24;;;;;;;10.82;2.08;;;24.40;99.90;;;;;;5039263;28;20518;-73
2022/09/16 00:08:51;;;;;;;6.85;1.95;;;24.40;99.90;;;;;;5038732;28;20026;-73
2022/09/16 00:11:18;;;;;;;9.30;1.85;;;24.40;99.90;;;;;;5040150;28;20032;-74
2022/09/16 00:13:45;;;;;;;5.53;1.98;;;24.30;99.90;;;;;;5040870;28;20577;-74
2022/09/16 00:16:22;;;;;;;7.53;2.05;;;24.30;99.90;;;;;;5037806;28;20091;-74
2022/09/16 00:18:47;;;;;;;7.72;2.10;;;24.30;99.90;;;;;;5038923;28;20132;-73
2022/09/16 00:21:14;;;;;;;4.32;1.65;;;24.30;99.90;;;;;;5038058;28;20088;-73
2022/09/16 00:23:39;;;;;;;7.97;1.80;;;24.20;99.90;;;;;;5035797;28;20039;-74
2022/09/16 00:26:06;;;;;;;5.32;2.20;;;24.20;99.90;;;;;;5034083;28;20054;-74
2022/09/16 00:28:31;;;;;;;6.82;1.80;;;24.20;99.90;;;;;;5043228;28;20649;-75
2022/09/16 00:30:59;;;;;;;8.10;2.33;;;24.20;99.90;;;;;;5040728;28;20033;-75
2022/09/16 00:33:25;;;;;;;6.75;2.28;;;24.20;99.90;;;;;;5039853;28;20088;-74
2022/09/16 00:35:51;;;;;;;3.83;1.65;;;24.20;99.90;;;;;;5036473;28;20510;-75
2022/09/16 00:38:17;;;;;;;7.18;1.75;;;24.20;99.90;;;;;;5040448;28;20045;-74
2022/09/16 00:40:45;;;;;;;4.93;1.90;;;24.10;99.90;;;;;;5023789;28;20041;-74
2022/09/16 00:43:16;;;;;;;5.35;1.85;;;24.10;99.90;;;;;;5036637;28;20040;-73
2022/09/16 00:45:46;;;;;;;5.07;1.42;;;24.10;99.90;;;;;;5033541;28;20182;-74
2022/09/16 00:48:19;;;;;;;5.78;1.60;;;24.10;99.90;;;;;;5034760;28;20034;-73
2022/09/16 00:50:54;;;;;;;5.50;1.55;;;24.10;99.90;;;;;;5040597;28;20677;-75
2022/09/16 00:53:33;;;;;;;5.53;1.65;;;24.10;99.90;;;;;;5019663;28;20052;-73
2022/09/16 00:56:01;;;;;;;4.53;2.00;;;24.00;99.90;;;;;;5041288;28;20040;-75
2022/09/16 00:58:47;;;;;;;7.53;1.95;;;24.00;99.90;;;;;;5034355;28;20041;-73
2022/09/16 01:01:13;;;;;;;8.98;2.20;;;24.10;99.90;;;;;;5035042;28;20387;-73
2022/09/16 01:03:50;;;;;;;5.28;2.15;;;24.00;99.90;;;;;;5036213;28;20108;-74
2022/09/16 01:06:18;;;;;;;6.72;2.53;;;24.00;99.90;;;;;;5034520;28;20128;-73
2022/09/16 01:08:44;;;;;;;3.45;1.77;;;23.90;99.90;;;;;;5033777;28;20033;-73
2022/09/16 01:11:10;;;;;;;6.22;1.80;;;23.90;99.90;;;;;;5034997;28;20073;-75
2022/09/16 01:13:39;;;;;;;5.82;2.03;;;23.90;99.90;;;;;;5035286;28;20064;-74
2022/09/16 01:16:14;;;;;;;5.95;1.83;;;23.80;99.90;;;;;;5036671;28;20523;-74
2022/09/16 01:18:50;;;;;;;4.43;1.90;;;23.80;99.90;;;;;;5039713;28;20036;-74
2022/09/16 01:21:19;;;;;;;5.97;1.85;;;23.80;99.90;;;;;;5024607;28;20112;-75
2022/09/16 01:24:10;;;;;;;5.63;1.90;;;23.90;99.90;;;;;;5023422;28;20033;-74
2022/09/16 01:27:13;;;;;;;4.50;1.67;;;23.80;99.90;;;;;;5035217;28;20029;-74
2022/09/16 01:30:15;;;;;;;7.43;2.55;;;23.80;99.90;;;;;;5033389;28;20064;-74
2022/09/16 01:32:56;;;;;;;6.88;1.77;;;23.70;99.90;;;;;;5016499;28;20041;-74
2022/09/16 01:36:01;;;;;;;6.50;1.70;;;23.80;99.90;;;;;;5033561;28;22514;-74
2022/09/16 01:38:42;;;;;;;6.70;1.60;;;23.80;99.90;;;;;;5031348;28;20039;-73
2022/09/16 01:41:28;;;;;;;5.93;1.80;;;23.80;99.90;;;;;;5031153;28;20045;-74
2022/09/16 01:44:16;;;;;;;4.20;1.70;;;23.70;99.90;;;;;;5033136;28;20572;-73
2022/09/16 01:47:10;;;;;;;5.95;2.22;;;23.70;99.90;;;;;;5034980;28;20120;-74
2022/09/16 01:49:42;;;;;;;7.65;2.20;;;23.70;99.90;;;;;;5018574;28;20042;-73
2022/09/16 01:52:31;;;;;;;6.47;2.10;;;23.70;99.90;;;;;;5032483;28;20093;-73
2022/09/16 01:55:17;;;;;;;5.43;1.90;;;23.70;99.90;;;;;;5037328;28;20301;-74
2022/09/16 01:58:24;;;;;;;6.38;1.95;;;23.60;99.90;;;;;;5036392;28;20040;-74
2022/09/16 02:00:57;;;;;;;6.78;2.05;;;23.60;99.90;;;;;;5035494;28;20060;-73
2022/09/16 02:03:29;;;;;;;4.15;2.08;;;23.60;99.90;;;;;;5034523;28;20057;-73
2022/09/16 02:06:01;;;;;;;6.22;1.83;;;23.60;99.90;;;;;;5033222;28;20180;-73
2022/09/16 02:08:42;;;;;;;6.57;2.05;;;23.50;99.90;;;;;;5033849;28;20105;-73
2022/09/16 02:11:13;;;;;;;4.68;1.77;;;23.50;99.90;;;;;;5030821;28;20045;-73
2022/09/16 02:13:42;;;;;;;4.88;1.80;;;23.50;99.90;;;;;;5036145;28;20037;-73
2022/09/16 02:16:16;;;;;;;5.38;2.17;;;23.50;99.90;;;;;;5039612;28;20045;-73
2022/09/16 02:18:49;;;;;;;7.93;1.90;;;23.50;99.90;;;;;;5023172;28;20029;-74
2022/09/16 02:21:20;;;;;;;8.90;2.13;;;23.50;99.90;;;;;;5034617;28;20474;-75
2022/09/16 02:23:52;;;;;;;7.78;1.83;;;23.50;99.90;;;;;;5040214;28;20025;-73
2022/09/16 02:26:23;;;;;;;6.03;2.17;;;23.50;99.90;;;;;;5039493;28;20040;-74
2022/09/16 02:28:52;;;;;;;7.97;2.45;;;23.50;99.90;;;;;;5027138;28;20033;-73
2022/09/16 02:31:27;;;;;;;5.70;1.90;;;23.50;99.90;;;;;;5037081;28;20041;-73
2022/09/16 02:34:34;;;;;;;6.38;1.90;;;23.50;99.90;;;;;;5043627;28;20044;-74
2022/09/16 02:37:07;;;;;;;5.70;1.67;;;23.50;99.90;;;;;;5039608;28;20509;-74
2022/09/16 02:39:37;;;;;;;5.53;2.03;;;23.50;99.90;;;;;;5031103;28;20041;-74
2022/09/16 02:42:05;;;;;;;8.77;2.72;;;23.50;99.90;;;;;;5036444;28;20037;-73
2022/09/16 02:44:33;;;;;;;4.88;1.95;;;23.50;99.90;;;;;;5032158;28;20478;-73
2022/09/16 02:47:29;;;;;;;5.72;2.03;;;23.60;99.90;;;;;;5039502;28;20421;-74
2022/09/16 02:50:06;;;;;;;7.65;2.65;;;23.50;99.90;;;;;;5040936;28;20033;-72
2022/09/16 02:52:56;;;;;;;8.05;2.28;;;23.50;99.90;;;;;;5033219;28;20121;-74
2022/09/16 02:55:29;;;;;;;5.57;2.08;;;23.50;99.90;;;;;;5034032;28;20030;-74
2022/09/16 02:57:55;;;;;;;6.60;2.25;;;23.50;99.90;;;;;;5037788;28;20825;-73
2022/09/16 03:00:21;;;;;;;4.97;2.38;;;23.60;99.90;;;;;;5031969;28;20702;-74
2022/09/16 03:02:48;;;;;;;6.07;1.95;;;23.60;99.90;;;;;;5042707;28;20037;-74
2022/09/16 03:05:14;;;;;;;7.03;1.90;;;23.50;99.90;;;;;;5035470;28;20050;-74
2022/09/16 03:07:41;;;;;;;6.30;2.00;;;23.50;99.90;;;;;;5034634;28;20053;-73
2022/09/16 03:10:10;;;;;;;7.50;2.35;;;23.50;99.90;;;;;;5034972;28;20452;-74
2022/09/16 03:12:45;;;;;;;5.95;1.98;;;23.50;99.90;;;;;;5036710;28;20388;-73
2022/09/16 03:15:17;;;;;;;7.32;1.73;;;23.40;99.90;;;;;;5036174;28;20398;-74
2022/09/16 03:18:05;;;;;;;5.65;1.60;;;23.50;99.90;;;;;;5045901;28;20439;-74
2022/09/16 03:20:36;;;;;;;6.90;2.20;;;23.40;99.90;;;;;;5031726;28;20072;-74
2022/09/16 03:23:13;;;;;;;6.72;1.73;;;23.40;99.90;;;;;;5037104;28;20057;-74
2022/09/16 03:26:03;;;;;;;5.18;1.70;;;23.40;99.90;;;;;;5038711;28;20028;-74
2022/09/16 03:29:14;;;;;;;4.88;1.90;;;23.40;99.90;;;;;;5039702;28;20029;-73
2022/09/16 03:31:49;;;;;;;6.68;1.98;;;23.30;99.90;;;;;;5036196;28;20099;-74
2022/09/16 03:34:29;;;;;;;5.57;1.83;;;23.30;99.90;;;;;;5038220;28;20042;-74
2022/09/16 03:37:03;;;;;;;7.57;2.13;;;23.20;99.90;;;;;;5039305;28;20499;-73
2022/09/16 03:39:31;;;;;;;5.18;2.00;;;23.30;99.90;;;;;;5040343;28;20509;-73
2022/09/16 03:42:10;;;;;;;6.57;2.15;;;23.30;99.90;;;;;;5038855;28;20033;-75
2022/09/16 03:44:39;;;;;;;5.85;2.25;;;23.30;99.90;;;;;;5038797;28;20036;-74
2022/09/16 03:47:06;;;;;;;5.30;1.95;;;23.30;99.90;;;;;;5044001;28;20048;-73
2022/09/16 03:49:34;;;;;;;8.93;2.28;;;23.20;99.90;;;;;;5042027;28;20764;-73
2022/09/16 03:52:04;;;;;;;4.85;2.00;;;23.30;99.90;;;;;;5039176;28;20488;-73
2022/09/16 03:54:30;;;;;;;5.65;2.20;;;23.20;99.90;;;;;;5040648;28;20063;-74
2022/09/16 03:56:57;;;;;;;5.97;2.45;;;23.30;99.90;;;;;;5046415;28;20033;-73
2022/09/16 03:59:22;;;;;;;6.70;2.10;;;23.30;99.90;;;;;;5045460;28;20152;-74
2022/09/16 04:01:48;;;;;;;8.20;2.33;;;23.30;99.90;;;;;;5040960;28;20124;-74
2022/09/16 04:04:14;;;;;;;6.47;2.35;;;23.30;99.90;;;;;;5038668;28;20030;-74
2022/09/16 04:06:40;;;;;;;7.95;2.17;;;23.40;99.90;;;;;;5037819;28;20030;-74
2022/09/16 04:09:07;;;;;;;7.82;2.00;;;23.30;99.90;;;;;;5035765;28;20041;-73
2022/09/16 04:11:34;;;;;;;5.75;2.45;;;23.40;99.90;;;;;;5025110;28;20044;-74
2022/09/16 04:14:00;;;;;;;5.50;2.30;;;23.40;99.90;;;;;;5040521;28;20559;-74
2022/09/16 04:16:27;;;;;;;10.32;2.75;;;23.30;99.90;;;;;;5033933;28;20111;-73
2022/09/16 04:18:53;;;;;;;8.25;2.55;;;23.30;99.90;;;;;;5041810;28;20026;-73
2022/09/16 04:21:20;;;;;;;5.78;2.30;;;23.20;99.90;;;;;;5033240;28;20397;-74
2022/09/16 04:23:47;;;;;;;7.30;2.60;;;23.20;99.90;;;;;;5046205;28;20037;-73
2022/09/16 04:26:14;;;;;;;4.03;1.80;;;23.20;99.90;;;;;;5038281;28;20045;-73
2022/09/16 04:28:39;;;;;;;7.47;2.22;;;23.20;99.90;;;;;;5042983;28;20049;-73
2022/09/16 04:31:09;;;;;;;8.50;3.10;;;23.20;99.90;;;;;;5023592;28;20056;-72
2022/09/16 04:33:35;;;;;;;8.35;2.58;;;23.20;99.90;;;;;;5036900;28;20029;-73
2022/09/16 04:36:15;;;;;;;8.93;2.60;;;23.20;99.90;;;;;;5039578;28;20056;-72
2022/09/16 04:38:43;;;;;;;7.03;2.85;;;23.20;99.90;;;;;;5034504;28;20103;-74
2022/09/16 04:41:14;;;;;;;6.95;2.70;;;23.20;99.90;;;;;;5039509;28;20041;-73
2022/09/16 04:43:40;;;;;;;6.97;2.63;;;23.20;99.90;;;;;;5038645;28;20037;-75
2022/09/16 04:46:07;;;;;;;10.30;3.10;;;23.20;99.90;;;;;;5040750;28;20110;-73
2022/09/16 04:48:34;;;;;;;6.80;3.05;;;23.20;99.90;;;;;;5040167;28;20036;-75
2022/09/16 04:51:11;;;;;;;6.20;2.88;;;23.20;99.90;;;;;;5012546;28;20037;-75
2022/09/16 04:53:38;;;;;;;5.88;2.55;;;23.20;99.90;;;;;;5040844;28;20032;-73
2022/09/16 04:56:14;;;;;;;10.60;2.60;;;23.20;99.90;;;;;;5035188;28;21217;-73
2022/09/16 04:58:42;;;;;;;13.13;3.25;;;23.30;99.90;;;;;;5038234;28;20069;-74
2022/09/16 05:01:13;;;;;;;9.98;2.90;;;23.30;99.90;;;;;;5034083;28;20132;-74
2022/09/16 05:03:47;;;;;;;7.10;2.75;;;23.30;99.90;;;;;;5039222;28;20492;-74
2022/09/16 05:06:18;;;;;;;7.97;2.90;;;23.30;99.90;;;;;;5032901;28;20095;-74
2022/09/16 05:08:44;;;;;;;5.15;3.00;;;23.40;99.90;;;;;;5037851;28;20341;-74
2022/09/16 05:11:19;;;;;;;9.82;3.42;;;23.40;99.90;;;;;;5039028;28;20048;-74
2022/09/16 05:13:45;;;;;;;7.63;2.92;;;23.40;99.90;;;;;;5043042;28;20084;-74
2022/09/16 05:16:14;;;;;;;6.80;2.80;;;23.40;99.90;;;;;;5034248;28;20060;-74
2022/09/16 05:18:41;;;;;;;6.28;2.88;;;23.50;99.90;;;;;;5034700;28;20029;-74
2022/09/16 05:21:10;;;;;;;6.53;2.67;;;23.40;99.90;;;;;;5020919;28;20041;-73
2022/09/16 05:23:36;;;;;;;9.43;3.20;;;23.40;99.90;;;;;;5036874;28;20503;-73
2022/09/16 05:26:08;;;;;;;9.05;3.00;;;23.40;99.90;;;;;;5034761;28;20632;-74
2022/09/16 05:28:34;;;;;;;8.05;2.72;;;23.40;99.90;;;;;;5035208;28;20610;-74
2022/09/16 05:31:15;;;;;;;7.70;2.65;;;23.40;99.90;;;;;;5037220;28;20082;-74
2022/09/16 05:33:43;;;;;;;13.63;3.60;;;23.40;99.90;;;;;;5044767;28;20039;-74
2022/09/16 05:36:15;;;;;;;8.00;3.22;;;23.40;99.90;;;;;;5036958;28;20117;-73
2022/09/16 05:38:41;;;;;;;8.52;3.28;;;23.40;99.90;;;;;;5040836;28;20099;-74
2022/09/16 05:41:07;;;;;;;8.65;3.00;;;23.50;99.90;;;;;;5035220;28;20087;-74
2022/09/16 05:43:35;;;;;;;8.93;3.22;;;23.60;99.90;;;;;;5037043;28;20025;-75
2022/09/16 05:46:01;;;;;;;10.80;3.47;;;23.60;99.90;;;;;;5034375;28;20104;-75
2022/09/16 05:48:27;;;;;;;13.70;3.55;;;23.60;99.90;;;;;;5033671;28;20029;-74
2022/09/16 05:51:02;;;;;;;10.23;3.30;;;23.60;99.90;;;;;;5034769;28;20044;-75
2022/09/16 05:53:30;;;;;;;7.68;3.50;;;23.60;99.90;;;;;;5041682;28;20040;-75
2022/09/16 05:56:01;;;;;;;10.98;4.40;;;23.60;99.90;;;;;;5041983;28;20037;-74
2022/09/16 05:58:29;;;;;;;8.43;3.67;;;23.70;99.90;;;;;;5033864;28;20477;-74
2022/09/16 06:01:06;;;;;;;10.75;3.58;;;23.70;99.90;;;;;;5028370;28;20083;-74
2022/09/16 06:03:33;;;;;;;10.20;3.80;;;23.80;99.90;;;;;;5044519;28;20497;-74
2022/09/16 06:06:10;;;;;;;9.57;3.97;;;23.80;99.90;;;;;;5037104;28;20044;-74
2022/09/16 06:08:36;;;;;;;9.60;4.00;;;23.90;99.90;;;;;;5022372;28;20033;-74
2022/09/16 06:11:03;;;;;;;12.32;4.53;;;23.90;99.90;;;;;;5041243;28;20053;-74
2022/09/16 06:13:29;;;;;;;11.35;4.38;;;24.00;99.90;;;;;;5025242;28;20033;-74
2022/09/16 06:15:55;;;;;;;8.23;4.60;;;24.00;99.90;;;;;;5034910;28;20048;-76
2022/09/16 06:18:23;;;;;;;8.98;4.20;;;24.00;99.90;;;;;;5033207;28;20037;-76
2022/09/16 06:20:49;;;;;;;9.43;3.95;;;24.10;99.90;;;;;;5039379;28;20041;-74
2022/09/16 06:23:16;;;;;;;10.82;4.68;;;24.10;99.90;;;;;;5041133;28;20063;-73
2022/09/16 06:25:42;;;;;;;10.95;4.57;;;24.20;99.90;;;;;;5040082;28;20029;-75
2022/09/16 06:28:10;;;;;;;11.77;4.18;;;24.20;99.90;;;;;;5026410;28;20026;-74
2022/09/16 06:30:39;;;;;;;8.90;4.57;;;24.30;99.90;;;;;;5034510;28;20438;-74
2022/09/16 06:33:05;;;;;;;10.20;3.90;;;24.30;99.90;;;;;;5031552;28;20037;-74
2022/09/16 06:35:34;;;;;;;14.52;4.80;;;24.50;99.90;;;;;;5037202;28;20099;-74
2022/09/16 06:38:00;;;;;;;9.75;4.50;;;24.50;99.90;;;;;;5036005;28;20036;-73
2022/09/16 06:40:26;;;;;;;13.73;4.40;;;24.40;99.90;;;;;;5037462;28;20083;-72
2022/09/16 06:42:53;;;;;;;9.07;4.00;;;24.40;99.90;;;;;;5036229;28;20376;-74
2022/09/16 06:45:20;;;;;;;9.40;4.80;;;24.40;99.90;;;;;;5035485;28;20116;-75
2022/09/16 06:47:46;;;;;;;8.60;4.10;;;24.50;99.90;;;;;;5035005;28;20136;-74
2022/09/16 06:50:11;;;;;;;9.18;3.88;;;24.50;99.90;;;;;;5033300;28;20049;-74
2022/09/16 06:52:37;;;;;;;10.43;4.53;;;24.50;99.90;;;;;;5038878;28;20037;-74
2022/09/16 06:55:04;;;;;;;8.40;3.55;;;24.60;99.90;;;;;;5035767;28;20374;-73
2022/09/16 06:57:31;;;;;;;8.18;3.63;;;24.70;99.90;;;;;;5041597;28;20034;-73
2022/09/16 06:59:58;;;;;;;5.78;2.90;;;24.70;99.90;;;;;;5033157;28;20026;-74
2022/09/16 07:02:25;;;;;;;6.50;2.60;;;24.80;99.90;;;;;;5037137;28;20072;-74
2022/09/16 07:04:51;;;;;;;8.77;2.42;;;24.90;99.90;;;;;;5039825;28;20063;-73
2022/09/16 07:07:16;;;;;;;9.60;2.80;;;25.00;99.90;;;;;;5035233;28;20061;-73
2022/09/16 07:09:42;;;;;;;3.35;1.83;;;25.10;99.90;;;;;;5038023;28;20162;-74
2022/09/16 07:12:08;;;;;;;4.95;1.98;;;25.20;99.90;;;;;;5038881;28;20059;-74
2022/09/16 07:14:34;;;;;;;6.00;1.60;;;25.30;99.90;;;;;;5041216;28;20037;-73
2022/09/16 07:17:00;;;;;;;7.43;2.20;;;25.30;99.90;;;;;;5031508;28;20643;-74
2022/09/16 07:19:27;;;;;;;8.48;1.83;;;25.30;99.90;;;;;;5039944;28;20041;-74
2022/09/16 07:21:53;;;;;;;5.95;2.33;;;25.60;99.90;;;;;;5035036;28;20675;-74
2022/09/16 07:24:18;;;;;;;7.75;2.42;;;25.70;99.90;;;;;;5018107;28;20044;-74
2022/09/16 07:26:45;;;;;;;6.63;2.30;;;25.90;99.90;;;;;;5035637;28;20037;-74
2022/09/16 07:29:17;;;;;;;8.07;1.77;;;25.90;99.90;;;;;;5030100;28;20099;-73
2022/09/16 07:31:43;;;;;;;4.78;1.70;;;25.90;99.90;;;;;;5033895;28;20038;-72
2022/09/16 07:34:10;;;;;;;7.10;2.00;;;25.70;99.90;;;;;;5035992;28;20045;-73
2022/09/16 07:36:37;;;;;;;4.32;1.75;;;25.60;99.90;;;;;;5030220;28;20041;-73
2022/09/16 07:39:04;;;;;;;7.57;1.75;;;25.60;99.90;;;;;;5032058;28;20045;-73
2022/09/16 07:41:33;;;;;;;6.30;2.28;;;25.60;99.90;;;;;;5037077;28;20059;-73
2022/09/16 07:44:00;;;;;;;6.63;2.00;;;25.70;99.90;;;;;;5032304;28;20052;-73
2022/09/16 07:46:29;;;;;;;6.40;1.85;;;25.70;99.90;;;;;;5033189;28;20025;-74
2022/09/16 07:48:57;;;;;;;3.83;1.20;;;25.80;99.90;;;;;;5036167;28;20033;-74
2022/09/16 07:51:24;;;;;;;3.25;1.38;;;25.80;99.90;;;;;;5032450;28;20048;-74
2022/09/16 07:53:58;;;;;;;3.38;1.50;;;26.00;99.90;;;;;;5029834;28;20037;-73
2022/09/16 07:56:25;;;;;;;3.63;1.63;;;26.20;99.90;;;;;;5033361;28;20041;-74
2022/09/16 07:58:53;;;;;;;3.85;1.63;;;26.30;99.90;;;;;;5035722;28;20041;-74
2022/09/16 08:01:19;;;;;;;3.83;1.25;;;26.50;99.90;;;;;;5035001;28;20040;-73
2022/09/16 08:03:46;;;;;;;4.22;1.40;;;26.60;99.90;;;;;;5028647;28;20588;-74
2022/09/16 08:06:22;;;;;;;5.05;1.77;;;26.60;99.90;;;;;;5029683;28;20041;-73
2022/09/16 08:08:51;;;;;;;5.28;1.48;;;26.40;99.90;;;;;;5040085;28;20382;-74
2022/09/16 08:11:17;;;;;;;4.03;1.70;;;26.40;99.90;;;;;;5032442;28;20033;-74
2022/09/16 08:13:44;;;;;;;3.40;1.50;;;26.00;99.90;;;;;;5035348;28;20556;-74
2022/09/16 08:16:15;;;;;;;3.72;1.70;;;26.00;99.90;;;;;;5037015;28;20029;-73
2022/09/16 08:18:41;;;;;;;7.53;1.75;;;25.90;99.90;;;;;;5035846;28;20042;-74
2022/09/16 08:21:19;;;;;;;8.00;1.77;;;25.80;99.90;;;;;;5024733;28;20045;-74
2022/09/16 08:23:45;;;;;;;7.70;1.98;;;25.70;99.90;;;;;;5037263;28;20045;-73
2022/09/16 08:26:12;;;;;;;5.70;1.77;;;25.80;99.90;;;;;;5035908;28;20554;-74
2022/09/16 08:28:41;;;;;;;5.43;1.58;;;26.10;99.90;;;;;;5042099;28;20133;-74
2022/09/16 08:31:08;;;;;;;5.93;1.67;;;26.40;99.90;;;;;;5036978;28;20481;-75
2022/09/16 08:33:34;;;;;;;4.20;1.70;;;26.90;99.90;;;;;;5040810;28;20037;-74
2022/09/16 08:36:04;;;;;;;6.53;1.58;;;27.20;99.90;;;;;;5037695;28;20116;-75
2022/09/16 08:38:32;;;;;;;5.00;1.52;;;27.40;99.90;;;;;;5036566;28;20037;-74
2022/09/16 08:41:04;;;;;;;4.18;1.60;;;27.30;99.90;;;;;;5045295;28;20036;-74
2022/09/16 08:43:46;;;;;;;4.55;1.67;;;27.30;99.90;;;;;;5028862;28;20083;-74
2022/09/16 08:46:23;;;;;;;6.28;1.80;;;27.00;99.90;;;;;;5030727;28;20508;-74
2022/09/16 08:49:25;;;;;;;10.10;2.00;;;26.40;99.90;;;;;;5035632;28;20036;-74
2022/09/16 08:51:53;;;;;;;6.55;1.92;;;26.20;99.90;;;;;;5014533;28;20041;-74
2022/09/16 08:54:36;;;;;;;4.80;1.98;;;25.90;99.90;;;;;;5033448;28;20385;-74
2022/09/16 08:57:05;;;;;;;3.92;1.60;;;25.80;99.90;;;;;;5032406;28;20223;-74
2022/09/16 08:59:38;;;;;;;7.60;2.10;;;25.60;99.90;;;;;;5032643;28;20511;-75
2022/09/16 09:02:33;;;;;;;6.00;1.85;;;25.50;99.90;;;;;;5025164;28;20132;-74
2022/09/16 09:05:01;;;;;;;5.72;1.63;;;25.40;99.90;;;;;;5031223;28;20115;-74
2022/09/16 09:07:35;;;;;;;4.25;1.70;;;25.30;99.90;;;;;;5026528;28;20037;-73
2022/09/16 09:10:24;;;;;;;5.72;2.20;;;25.50;99.90;;;;;;5033235;28;20042;-75
2022/09/16 09:13:13;;;;;;;6.78;1.70;;;25.90;99.90;;;;;;5018565;28;20037;-75
2022/09/16 09:16:11;;;;;;;13.32;2.13;;;25.90;99.90;;;;;;5033952;28;20037;-74
2022/09/16 09:18:47;;;;;;;4.72;1.88;;;26.00;99.90;;;;;;5008888;28;20044;-74
2022/09/16 09:21:31;;;;;;;4.45;1.90;;;26.30;99.90;;;;;;5034615;28;20041;-73
2022/09/16 09:24:00;;;;;;;6.25;1.75;;;26.70;99.90;;;;;;5040156;28;20022;-73
2022/09/16 09:26:55;;;;;;;7.18;2.30;;;26.80;99.90;;;;;;5036519;28;20041;-74
2022/09/16 09:29:46;;;;;;;6.22;1.67;;;27.00;99.90;;;;;;5033793;28;20029;-74
2022/09/16 09:32:41;;;;;;;12.30;1.85;;;26.70;99.90;;;;;;5018018;28;20037;-75
2022/09/16 09:35:46;;;;;;;5.82;2.13;;;26.30;99.90;;;;;;5033193;28;20072;-73
2022/09/16 09:38:37;;;;;;;10.20;2.28;;;26.50;99.90;;;;;;5033158;28;20472;-73
2022/09/16 09:41:11;;;;;;;5.25;2.38;;;26.80;99.90;;;;;;5045801;28;20041;-74
2022/09/16 09:43:47;;;;;;;5.22;2.13;;;26.70;99.90;;;;;;5030617;28;20034;-73
2022/09/16 09:46:28;;;;;;;8.68;2.08;;;27.10;99.90;;;;;;5032681;28;20042;-75
2022/09/16 09:49:10;;;;;;;6.90;2.50;;;27.20;99.90;;;;;;5034878;28;20677;-75
2022/09/16 09:52:01;;;;;;;7.75;2.88;;;27.20;99.90;;;;;;5028446;28;20673;-75
2022/09/16 09:54:30;;;;;;;6.78;2.40;;;27.50;99.90;;;;;;5039340;28;20374;-75
2022/09/16 09:57:04;;;;;;;6.30;2.28;;;27.50;99.90;;;;;;5027474;28;20477;-74
2022/09/16 09:59:55;;;;;;;7.82;2.25;;;27.50;99.90;;;;;;5029659;28;20535;-74
2022/09/16 10:02:22;;;;;;;5.13;1.63;;;27.60;99.90;;;;;;5026735;28;20033;-74
2022/09/16 10:04:48;;;;;;;3.45;1.48;;;27.60;99.90;;;;;;5036970;28;20175;-74
2022/09/16 10:07:17;;;;;;;8.07;1.90;;;27.50;99.90;;;;;;5013176;28;20040;-74
2022/09/16 10:10:03;;;;;;;6.38;1.90;;;27.50;99.90;;;;;;5036260;28;20043;-74
2022/09/16 10:12:34;;;;;;;5.63;2.10;;;27.70;99.90;;;;;;5042469;28;20160;-75
2022/09/16 10:15:02;;;;;;;7.47;1.80;;;27.90;99.90;;;;;;5033109;28;20061;-74
2022/09/16 10:17:31;;;;;;;4.28;1.52;;;27.90;99.90;;;;;;5026870;28;20041;-74
2022/09/16 10:20:09;;;;;;;10.75;1.80;;;28.30;99.90;;;;;;5030931;28;20025;-75
2022/09/16 10:22:35;;;;;;;10.43;2.42;;;28.50;99.90;;;;;;5029526;28;20500;-74
2022/09/16 10:25:23;;;;;;;8.30;2.00;;;28.60;99.90;;;;;;5030536;28;20046;-74
2022/09/16 10:28:05;;;;;;;5.88;1.60;;;28.20;99.90;;;;;;5024837;28;20478;-74
2022/09/16 10:30:32;;;;;;;;;;;28.00;99.90;;;;;;5023392;28;20045;-75
2022/09/16 10:33:12;;;;;;;5.35;2.17;;;28.10;99.90;;;;;;5012284;28;19914;-74
2022/09/16 10:35:40;;;;;;;5.88;1.83;;;28.50;99.90;;;;;;5035379;28;20052;-75
2022/09/16 10:38:10;;;;;;;8.38;1.75;;;28.70;99.90;;;;;;5036726;28;20561;-74
2022/09/16 10:40:37;;;;;;;5.35;1.80;;;29.00;99.90;;;;;;5037479;28;20044;-75
2022/09/16 10:43:06;;;;;;;10.82;1.80;;;29.00;99.90;;;;;;5041693;28;20047;-75
2022/09/16 10:45:42;;;;;;;4.82;1.70;;;28.60;99.90;;;;;;5043863;28;20075;-74
2022/09/16 10:48:13;;;;;;;13.00;1.83;;;28.10;99.90;;;;;;5030153;28;20045;-74
2022/09/16 10:50:50;;;;;;;5.82;1.40;;;27.50;99.90;;;;;;5053512;28;20527;-75
2022/09/16 10:53:50;;;;;;;7.03;1.90;;;28.00;99.90;;;;;;5036556;28;20080;-75
2022/09/16 10:56:22;;;;;;;14.40;2.28;;;28.10;99.90;;;;;;5026599;28;20913;-74
2022/09/16 10:58:49;;;;;;;12.27;2.40;;;27.80;99.90;;;;;;5030382;28;20037;-75
2022/09/16 11:01:52;;;;;;;11.98;1.98;;;28.20;99.90;;;;;;5039382;28;20384;-75
2022/09/16 11:04:40;;;;;;;8.77;2.45;;;27.40;99.90;;;;;;5039294;28;20026;-77
2022/09/16 11:07:16;;;;;;;9.98;1.80;;;26.60;99.90;;;;;;5036255;28;20045;-74
2022/09/16 11:09:54;;;;;;;9.65;2.20;;;26.40;99.90;;;;;;5035099;28;20029;-75
2022/09/16 11:12:59;;;;;;;11.38;2.08;;;25.90;99.90;;;;;;5036055;28;20038;-74
2022/09/16 11:15:44;;;;;;;10.60;2.65;;;25.80;99.90;;;;;;5034293;28;20068;-74
2022/09/16 11:18:33;;;;;;;10.32;2.20;;;25.80;99.90;;;;;;5032625;28;20045;-74
2022/09/16 11:21:11;;;;;;;9.48;2.25;;;25.50;99.90;;;;;;5025907;28;20185;-75
2022/09/16 11:23:55;;;;;;;7.97;1.95;;;25.20;99.90;;;;;;5032589;28;20055;-74
2022/09/16 11:26:40;;;;;;;13.00;2.28;;;25.10;99.90;;;;;;5039217;28;20057;-75
2022/09/16 11:29:32;;;;;;;11.73;2.97;;;24.90;99.90;;;;;;5033962;28;20075;-74
2022/09/16 11:32:19;;;;;;;11.00;2.58;;;24.50;99.90;;;;;;5035403;28;20040;-73
2022/09/16 11:35:04;;;;;;;9.20;2.60;;;23.90;99.90;;;;;;5033546;28;20075;-74
2022/09/16 11:37:50;;;;;;;9.60;2.30;;;23.80;99.90;;;;;;5041714;28;20029;-72
2022/09/16 11:40:37;;;;;;;10.90;2.15;;;23.20;99.90;;;;;;5028761;28;20451;-73
2022/09/16 11:43:31;;;;;;;5.63;2.15;;;23.10;99.90;;;;;;5038389;28;20032;-73
2022/09/16 11:46:06;;;;;;;10.45;2.42;;;23.20;99.90;;;;;;5031269;28;20042;-73
2022/09/16 11:49:25;;;;;;;8.57;2.75;;;23.40;99.90;;;;;;5034811;28;20029;-73
2022/09/16 11:51:59;;;;;;;9.05;2.90;;;24.10;99.90;;;;;;5002224;28;20045;-73
2022/09/16 11:54:34;;;;;;;9.05;2.55;;;25.10;99.90;;;;;;5033632;28;20436;-74
2022/09/16 11:57:08;;;;;;;8.07;2.83;;;25.60;99.90;;;;;;5035625;28;20029;-74
2022/09/16 11:59:55;;;;;;;7.72;2.60;;;25.10;99.90;;;;;;5042872;28;20109;-74
2022/09/16 12:02:35;;;;;;;9.63;2.80;;;25.20;99.90;;;;;;5035593;28;20082;-75
2022/09/16 12:05:20;;;;;;;10.93;2.85;;;24.90;99.90;;;;;;5036857;28;20037;-74
2022/09/16 12:08:11;;;;;;;9.98;2.60;;;24.90;99.90;;;;;;5015576;28;20038;-72
2022/09/16 12:11:06;;;;;;;14.20;3.23;;;24.60;99.90;;;;;;5033049;28;20144;-73
2022/09/16 12:13:40;;;;;;;11.25;2.60;;;24.60;99.90;;;;;;5013939;28;20126;-73
2022/09/16 12:16:14;;;;;;;10.68;2.88;;;24.70;99.90;;;;;;5036123;28;20033;-73
2022/09/16 12:18:52;;;;;;;11.40;3.25;;;24.70;99.90;;;;;;5037587;28;20052;-75
2022/09/16 12:21:31;;;;;;;10.38;3.00;;;25.00;99.90;;;;;;5031530;28;20329;-74
2022/09/16 12:24:05;;;;;;;9.13;2.38;;;25.10;99.90;;;;;;5041643;28;20022;-75
2022/09/16 12:26:43;;;;;;;8.88;2.85;;;25.00;99.90;;;;;;5039899;28;20060;-74
2022/09/16 12:29:20;;;;;;;7.78;2.63;;;25.60;99.90;;;;;;5039162;28;20029;-75
2022/09/16 12:31:58;;;;;;;10.10;2.88;;;26.00;99.90;;;;;;5039195;28;20026;-75
2022/09/16 12:34:38;;;;;;;8.57;2.63;;;26.00;99.90;;;;;;5026186;28;20033;-74
2022/09/16 12:37:28;;;;;;;10.82;2.35;;;26.50;99.90;;;;;;5035512;28;20030;-74
2022/09/16 12:39:54;;;;;;;9.35;2.38;;;26.40;99.90;;;;;;5034774;28;20128;-74
2022/09/16 12:42:38;;;;;;;12.18;2.92;;;25.70;99.90;;;;;;5033387;28;20140;-74
2022/09/16 12:45:25;;;;;;;9.18;2.83;;;25.90;99.90;;;;;;5036579;28;20037;-75
2022/09/16 12:48:19;;;;;;;9.32;1.58;;;26.30;99.90;;;;;;5032359;28;20037;-74
2022/09/16 12:51:18;;;;;;;5.30;2.03;;;27.10;99.90;;;;;;5034918;28;20052;-76
2022/09/16 12:54:03;;;;;;;12.57;1.95;;;27.00;99.90;;;;;;5040549;28;20076;-74
2022/09/16 12:57:07;;;;;;;7.32;2.20;;;26.70;99.90;;;;;;5023221;28;20045;-74
2022/09/16 13:00:11;;;;;;;9.45;2.33;;;26.80;99.90;;;;;;5034371;28;20037;-75
2022/09/16 13:02:42;;;;;;;7.95;2.17;;;27.10;99.90;;;;;;5035705;28;20033;-76
2022/09/16 13:05:36;;;;;;;11.15;1.73;;;27.10;99.90;;;;;;5037072;28;20033;-76
2022/09/16 13:08:25;;;;;;;6.03;1.77;;;26.50;99.90;;;;;;5034090;28;20094;-75
2022/09/16 13:11:02;;;;;;;13.02;3.38;;;26.00;99.90;;;;;;5040698;28;20065;-75
2022/09/16 13:13:46;;;;;;;6.72;1.90;;;26.30;99.90;;;;;;5042479;28;20037;-76
2022/09/16 13:16:12;;;;;;;6.80;1.60;;;26.30;99.90;;;;;;5036864;28;20527;-75
2022/09/16 13:18:42;;;;;;;8.48;1.75;;;26.10;99.90;;;;;;5037698;28;20041;-74
2022/09/16 13:21:30;;;;;;;5.25;1.55;;;25.60;99.90;;;;;;5035304;28;20518;-74
2022/09/16 13:23:59;;;;;;;5.47;2.15;;;25.80;99.90;;;;;;5040086;28;20034;-74